createdAt,value
2019-03-23T00:00:00.374Z,94.98
2019-03-23T00:02:30.238Z,95.04
2019-03-23T00:05:00.255Z,95.04
2019-03-23T00:07:29.427Z,95.05
2019-03-23T00:09:58.969Z,95.07
2019-03-23T00:12:28.230Z,95.16
2019-03-23T00:14:57.865Z,95.17
2019-03-23T00:17:27.362Z,95.15
2019-03-23T00:19:56.938Z,95.21
2019-03-23T00:22:26.487Z,95.21
2019-03-23T00:24:55.692Z,95.22
2019-03-23T00:27:25.190Z,95.26
2019-03-23T00:29:54.701Z,95.29
2019-03-23T00:32:23.907Z,95.27
2019-03-23T00:34:53.401Z,95.32
2019-03-23T00:37:22.908Z,95.29
2019-03-23T00:39:52.413Z,95.42
2019-03-23T00:42:21.905Z,95.49
2019-03-23T00:44:51.745Z,95.53
2019-03-23T00:47:21.258Z,95.57
2019-03-23T00:49:50.852Z,95.57
2019-03-23T00:52:20.012Z,95.57
2019-03-23T00:54:50.162Z,95.55
2019-03-23T00:57:19.681Z,95.41
2019-03-23T00:59:49.592Z,95.62
2019-03-23T01:02:19.074Z,95.60
2019-03-23T01:04:48.583Z,95.51
2019-03-23T01:07:18.104Z,95.51
2019-03-23T01:09:47.699Z,95.59
2019-03-23T01:12:17.220Z,95.57
2019-03-23T01:14:46.410Z,95.57
2019-03-23T01:17:15.917Z,95.61
2019-03-23T01:19:45.425Z,95.61
2019-03-23T01:22:14.635Z,95.67
2019-03-23T01:24:44.132Z,95.67
2019-03-23T01:27:13.352Z,95.71
2019-03-23T01:29:42.547Z,96.04
2019-03-23T01:32:12.343Z,96.04
2019-03-23T01:34:41.846Z,96.13
2019-03-23T01:37:11.350Z,96.13
2019-03-23T01:39:40.556Z,95.62
2019-03-23T01:42:09.720Z,95.62
2019-03-23T01:44:39.157Z,95.78
2019-03-23T01:47:08.382Z,95.75
2019-03-23T01:49:37.568Z,96.04
2019-03-23T01:52:07.069Z,96.04
2019-03-23T01:54:36.560Z,95.59
2019-03-23T01:57:06.479Z,95.40
2019-03-23T01:59:35.985Z,95.40
2019-03-23T02:02:05.234Z,95.52
2019-03-23T02:04:34.412Z,95.52
2019-03-23T02:07:13.523Z,95.71
2019-03-23T02:09:34.902Z,95.38
2019-03-23T02:12:04.434Z,95.38
2019-03-23T02:14:34.552Z,95.68
2019-03-23T02:17:03.805Z,95.64
2019-03-23T02:19:33.977Z,95.78
2019-03-23T02:22:03.597Z,95.78
2019-03-23T02:24:32.775Z,95.63
2019-03-23T02:27:02.712Z,95.51
2019-03-23T02:29:32.506Z,95.67
2019-03-23T02:32:01.699Z,95.67
2019-03-23T02:34:31.217Z,95.79
2019-03-23T02:37:00.851Z,95.32
2019-03-23T02:39:30.046Z,95.37
2019-03-23T02:41:59.217Z,95.37
2019-03-23T02:44:28.723Z,95.53
2019-03-23T02:46:58.235Z,95.78
2019-03-23T02:49:27.737Z,95.88
2019-03-23T02:51:57.659Z,95.88
2019-03-23T02:54:27.161Z,96.14
2019-03-23T02:56:56.968Z,95.82
2019-03-23T02:59:27.320Z,96.48
2019-03-23T03:01:56.814Z,96.48
2019-03-23T03:04:25.990Z,95.88
2019-03-23T03:06:55.607Z,95.88
2019-03-23T03:09:24.905Z,96.13
2019-03-23T03:11:54.422Z,95.86
2019-03-23T03:14:23.589Z,95.86
2019-03-23T03:16:53.435Z,96.07
2019-03-23T03:19:22.655Z,95.77
2019-03-23T03:21:52.435Z,96.09
2019-03-23T03:24:21.635Z,95.62
2019-03-23T03:26:51.156Z,96.18
2019-03-23T03:29:20.641Z,96.18
2019-03-23T03:31:50.251Z,95.76
2019-03-23T03:34:19.470Z,95.79
2019-03-23T03:36:49.485Z,95.82
2019-03-23T03:39:18.680Z,95.82
2019-03-23T03:41:48.173Z,95.59
2019-03-23T03:44:17.429Z,95.79
2019-03-23T03:46:46.883Z,95.69
2019-03-23T03:49:16.394Z,95.69
2019-03-23T03:51:45.908Z,95.72
2019-03-23T03:54:15.802Z,95.55
2019-03-23T03:56:45.379Z,95.55
2019-03-23T03:59:14.560Z,95.76
2019-03-23T04:01:44.015Z,95.82
2019-03-23T04:04:13.937Z,95.74
2019-03-23T04:06:43.411Z,95.59
2019-03-23T04:09:13.246Z,95.75
2019-03-23T04:11:42.453Z,96.01
2019-03-23T04:14:11.628Z,96.09
2019-03-23T04:16:41.174Z,95.87
2019-03-23T04:19:10.334Z,95.77
2019-03-23T04:21:39.896Z,95.87
2019-03-23T04:24:09.359Z,96.06
2019-03-23T04:26:39.415Z,95.90
2019-03-23T04:29:09.357Z,95.90
2019-03-23T04:31:38.921Z,96.16
2019-03-23T04:34:08.093Z,96.51
2019-03-23T04:36:37.289Z,96.85
2019-03-23T04:39:07.629Z,96.62
2019-03-23T04:41:36.833Z,96.14
2019-03-23T04:44:06.329Z,96.14
2019-03-23T04:46:35.834Z,96.53
2019-03-23T04:49:05.442Z,96.53
2019-03-23T04:51:35.054Z,96.46
2019-03-23T04:54:04.258Z,96.50
2019-03-23T04:56:33.504Z,96.55
2019-03-23T04:59:03.269Z,96.58
2019-03-23T05:01:33.072Z,96.64
2019-03-23T05:04:02.588Z,96.62
2019-03-23T05:06:31.820Z,96.46
2019-03-23T05:09:01.282Z,96.71
2019-03-23T05:11:30.906Z,96.71
2019-03-23T05:14:00.808Z,96.36
2019-03-23T05:16:30.002Z,96.36
2019-03-23T05:18:59.506Z,96.40
2019-03-23T05:21:29.004Z,96.40
2019-03-23T05:23:58.538Z,96.63
2019-03-23T05:26:28.640Z,96.68
2019-03-23T05:28:58.146Z,96.53
2019-03-23T05:31:27.654Z,96.38
2019-03-23T05:33:56.852Z,96.33
2019-03-23T05:36:26.770Z,96.71
2019-03-23T05:38:55.957Z,96.43
2019-03-23T05:41:25.471Z,96.45
2019-03-23T05:43:54.980Z,96.35
2019-03-23T05:46:24.500Z,96.28
2019-03-23T05:48:54.287Z,96.29
2019-03-23T05:51:24.113Z,96.16
2019-03-23T05:53:53.612Z,96.01
2019-03-23T05:56:23.236Z,95.75
2019-03-23T05:58:52.730Z,95.71
2019-03-23T06:01:22.283Z,95.48
2019-03-23T06:03:51.468Z,95.12
2019-03-23T06:06:20.967Z,95.04
2019-03-23T06:08:55.016Z,95.16
2019-03-23T06:11:21.390Z,94.97
2019-03-23T06:13:50.711Z,94.76
2019-03-23T06:16:20.505Z,94.86
2019-03-23T06:18:49.708Z,95.16
2019-03-23T06:21:19.509Z,95.45
2019-03-23T06:23:49.154Z,95.62
2019-03-23T06:26:18.933Z,95.73
2019-03-23T06:28:48.432Z,95.54
2019-03-23T06:31:18.040Z,95.42
2019-03-23T06:33:47.207Z,95.26
2019-03-23T06:36:16.733Z,94.58
2019-03-23T06:38:46.278Z,94.58
2019-03-23T06:41:15.458Z,95.03
2019-03-23T06:43:45.266Z,95.10
2019-03-23T06:46:14.782Z,94.82
2019-03-23T06:48:44.550Z,94.56
2019-03-23T06:51:14.097Z,94.59
2019-03-23T06:53:43.288Z,94.59
2019-03-23T06:56:13.097Z,94.42
2019-03-23T06:58:42.609Z,94.27
2019-03-23T07:01:11.876Z,94.46
2019-03-23T07:03:41.309Z,94.56
2019-03-23T07:06:11.227Z,94.78
2019-03-23T07:08:41.291Z,94.53
2019-03-23T07:11:11.040Z,94.33
2019-03-23T07:13:40.872Z,94.71
2019-03-23T07:16:10.376Z,94.71
2019-03-23T07:18:39.880Z,93.79
2019-03-23T07:21:09.634Z,93.79
2019-03-23T07:23:39.248Z,93.57
2019-03-23T07:26:08.455Z,93.31
2019-03-23T07:28:37.650Z,92.80
2019-03-23T07:31:06.905Z,92.65
2019-03-23T07:33:36.060Z,92.65
2019-03-23T07:36:05.709Z,93.04
2019-03-23T07:38:34.903Z,92.91
2019-03-23T07:41:04.076Z,92.80
2019-03-23T07:43:33.812Z,93.25
2019-03-23T07:46:03.331Z,93.29
2019-03-23T07:48:32.909Z,93.44
2019-03-23T07:51:02.737Z,93.44
2019-03-23T07:53:32.553Z,93.83
2019-03-23T07:56:02.062Z,93.83
2019-03-23T07:58:32.307Z,93.74
2019-03-23T08:01:01.493Z,93.74
2019-03-23T08:03:30.986Z,93.22
2019-03-23T08:06:00.594Z,93.08
2019-03-23T08:08:29.892Z,93.08
2019-03-23T08:10:59.509Z,92.36
2019-03-23T08:13:29.079Z,92.36
2019-03-23T08:15:58.924Z,92.44
2019-03-23T08:18:28.512Z,92.44
2019-03-23T08:20:58.034Z,92.74
2019-03-23T08:23:27.309Z,93.10
2019-03-23T08:25:56.511Z,93.08
2019-03-23T08:28:26.352Z,93.08
2019-03-23T08:30:56.470Z,93.05
2019-03-23T08:33:26.499Z,92.82
2019-03-23T08:35:56.915Z,91.97
2019-03-23T08:38:26.415Z,91.97
2019-03-23T08:40:55.933Z,92.00
2019-03-23T08:43:25.153Z,92.38
2019-03-23T08:45:54.627Z,92.44
2019-03-23T08:48:23.859Z,92.44
2019-03-23T08:50:53.135Z,92.04
2019-03-23T08:53:22.303Z,91.33
2019-03-23T08:55:51.831Z,91.33
2019-03-23T08:58:28.362Z,91.64
2019-03-23T09:00:58.867Z,91.62
2019-03-23T09:03:28.114Z,91.22
2019-03-23T09:05:57.341Z,91.45
2019-03-23T09:08:26.845Z,91.29
2019-03-23T09:10:56.341Z,90.50
2019-03-23T09:13:26.123Z,89.99
2019-03-23T09:15:55.279Z,89.57
2019-03-23T09:18:25.065Z,89.59
2019-03-23T09:20:54.880Z,89.80
2019-03-23T09:23:24.390Z,89.78
2019-03-23T09:25:54.505Z,89.80
2019-03-23T09:28:24.052Z,89.83
2019-03-23T09:30:53.619Z,89.92
2019-03-23T09:33:22.843Z,89.48
2019-03-23T09:35:52.238Z,88.48
2019-03-23T09:38:22.195Z,89.10
2019-03-23T09:40:51.641Z,88.53
2019-03-23T09:43:21.458Z,88.38
2019-03-23T09:45:51.676Z,87.37
2019-03-23T09:48:20.856Z,86.52
2019-03-23T09:50:50.274Z,86.01
2019-03-23T09:53:19.456Z,85.91
2019-03-23T09:55:48.666Z,85.91
2019-03-23T09:58:17.855Z,85.70
2019-03-23T10:00:47.131Z,84.63
2019-03-23T10:03:16.585Z,84.17
2019-03-23T10:05:46.392Z,84.10
2019-03-23T10:08:18.458Z,82.90
2019-03-23T10:10:47.670Z,82.94
2019-03-23T10:13:16.864Z,82.94
2019-03-23T10:15:46.667Z,83.26
2019-03-23T10:18:16.205Z,83.53
2019-03-23T10:20:45.959Z,83.01
2019-03-23T10:23:15.106Z,82.49
2019-03-23T10:25:44.615Z,82.02
2019-03-23T10:28:13.755Z,82.88
2019-03-23T10:30:43.184Z,81.70
2019-03-23T10:33:12.695Z,81.82
2019-03-23T10:35:41.860Z,82.44
2019-03-23T10:38:11.403Z,82.44
2019-03-23T10:40:42.901Z,81.90
2019-03-23T10:43:12.234Z,81.58
2019-03-23T10:45:44.313Z,81.73
2019-03-23T10:48:12.705Z,82.24
2019-03-23T10:50:42.182Z,82.26
2019-03-23T10:53:11.710Z,81.89
2019-03-23T10:55:40.908Z,81.25
2019-03-23T10:58:11.030Z,82.07
2019-03-23T11:00:40.211Z,82.07
2019-03-23T11:03:09.668Z,82.26
2019-03-23T11:05:38.828Z,81.96
2019-03-23T11:08:08.343Z,81.94
2019-03-23T11:10:41.925Z,82.15
2019-03-23T11:13:09.351Z,82.32
2019-03-23T11:15:38.657Z,82.42
2019-03-23T11:18:08.407Z,82.92
2019-03-23T11:20:37.913Z,82.60
2019-03-23T11:23:07.520Z,82.72
2019-03-23T11:25:36.722Z,82.88
2019-03-23T11:28:06.325Z,82.41
2019-03-23T11:30:36.147Z,82.16
2019-03-23T11:33:05.497Z,82.20
2019-03-23T11:35:34.700Z,82.47
2019-03-23T11:38:04.546Z,83.05
2019-03-23T11:40:34.160Z,82.87
2019-03-23T11:43:03.667Z,82.48
2019-03-23T11:45:33.164Z,81.60
2019-03-23T11:48:02.606Z,81.22
2019-03-23T11:50:31.815Z,81.04
2019-03-23T11:53:01.288Z,80.66
2019-03-23T11:55:30.450Z,80.22
2019-03-23T11:58:00.240Z,81.25
2019-03-23T12:00:29.695Z,80.46
2019-03-23T12:02:59.508Z,80.45
2019-03-23T12:05:29.424Z,80.06
2019-03-23T12:07:59.240Z,79.56
2019-03-23T12:10:28.399Z,79.24
2019-03-23T12:12:58.263Z,78.75
2019-03-23T12:15:29.732Z,78.78
2019-03-23T12:17:58.342Z,78.53
2019-03-23T12:20:28.094Z,78.30
2019-03-23T12:22:57.561Z,78.39
2019-03-23T12:25:27.108Z,78.07
2019-03-23T12:27:56.341Z,77.05
2019-03-23T12:30:25.820Z,77.62
2019-03-23T12:32:55.010Z,77.84
2019-03-23T12:35:24.503Z,77.38
2019-03-23T12:37:53.706Z,77.04
2019-03-23T12:40:23.228Z,77.00
2019-03-23T12:42:52.383Z,75.55
2019-03-23T12:45:21.825Z,75.06
2019-03-23T12:47:51.049Z,74.97
2019-03-23T12:50:20.240Z,75.99
2019-03-23T12:52:49.734Z,73.84
2019-03-23T12:55:18.926Z,73.72
2019-03-23T12:57:48.535Z,73.38
2019-03-23T13:00:18.142Z,72.52
2019-03-23T13:02:47.657Z,71.56
2019-03-23T13:05:17.155Z,70.43
2019-03-23T13:07:46.354Z,70.76
2019-03-23T13:10:16.378Z,68.37
2019-03-23T13:12:45.627Z,67.14
2019-03-23T13:15:15.481Z,64.72
2019-03-23T13:17:44.984Z,64.28
2019-03-23T13:20:14.817Z,63.92
2019-03-23T13:22:44.027Z,63.04
2019-03-23T13:25:13.716Z,61.08
2019-03-23T13:27:43.207Z,62.29
2019-03-23T13:30:12.928Z,60.06
2019-03-23T13:32:42.116Z,58.98
2019-03-23T13:35:11.393Z,57.20
2019-03-23T13:37:40.657Z,57.83
2019-03-23T13:40:10.644Z,60.09
2019-03-23T13:42:40.154Z,60.14
2019-03-23T13:45:10.023Z,60.19
2019-03-23T13:47:39.678Z,59.72
2019-03-23T13:50:10.012Z,59.49
2019-03-23T13:52:39.304Z,59.09
2019-03-23T13:55:10.438Z,61.08
2019-03-23T13:57:40.064Z,61.67
2019-03-23T14:00:09.836Z,62.73
2019-03-23T14:02:39.144Z,61.71
2019-03-23T14:05:16.079Z,62.56
2019-03-23T14:07:39.697Z,63.02
2019-03-23T14:10:09.071Z,64.06
2019-03-23T14:12:38.608Z,63.33
2019-03-23T14:15:08.461Z,62.68
2019-03-23T14:17:38.057Z,62.45
2019-03-23T14:20:08.064Z,62.00
2019-03-23T14:22:37.671Z,61.88
2019-03-23T14:25:06.987Z,61.85
2019-03-23T14:27:36.666Z,63.17
2019-03-23T14:30:07.209Z,62.70
2019-03-23T14:32:36.404Z,61.00
2019-03-23T14:35:06.137Z,62.15
2019-03-23T14:37:36.188Z,61.77
2019-03-23T14:40:06.055Z,60.89
2019-03-23T14:42:35.866Z,60.99
2019-03-23T14:45:05.403Z,60.91
2019-03-23T14:47:35.292Z,58.89
2019-03-23T14:50:05.631Z,59.71
2019-03-23T14:52:34.851Z,57.03
2019-03-23T14:55:04.620Z,57.29
2019-03-23T14:57:33.825Z,59.01
2019-03-23T15:00:03.308Z,58.24
2019-03-23T15:02:32.521Z,57.68
2019-03-23T15:05:01.696Z,59.40
2019-03-23T15:07:30.858Z,57.46
2019-03-23T15:10:00.039Z,57.72
2019-03-23T15:12:29.775Z,58.43
2019-03-23T15:14:59.229Z,58.03
2019-03-23T15:17:28.725Z,57.70
2019-03-23T15:19:58.242Z,59.31
2019-03-23T15:22:27.760Z,62.97
2019-03-23T15:24:57.561Z,63.69
2019-03-23T15:27:27.068Z,64.31
2019-03-23T15:29:56.845Z,63.36
2019-03-23T15:32:26.389Z,65.23
2019-03-23T15:34:55.900Z,64.65
2019-03-23T15:37:25.402Z,63.08
2019-03-23T15:39:54.913Z,63.46
2019-03-23T15:42:25.076Z,61.16
2019-03-23T15:44:54.829Z,60.51
2019-03-23T15:47:24.744Z,58.98
2019-03-23T15:49:54.255Z,59.95
2019-03-23T15:52:23.784Z,58.44
2019-03-23T15:54:53.270Z,57.27
2019-03-23T15:57:22.449Z,56.56
2019-03-23T15:59:51.988Z,57.50
2019-03-23T16:02:21.727Z,58.19
2019-03-23T16:04:51.607Z,56.31
2019-03-23T16:07:29.228Z,57.60
2019-03-23T16:09:52.355Z,56.42
2019-03-23T16:12:21.584Z,56.23
2019-03-23T16:14:51.060Z,56.39
2019-03-23T16:17:21.177Z,58.76
2019-03-23T16:19:50.380Z,56.30
2019-03-23T16:22:19.885Z,55.25
2019-03-23T16:24:49.100Z,55.81
2019-03-23T16:27:18.308Z,56.05
2019-03-23T16:29:47.809Z,55.69
2019-03-23T16:32:16.968Z,56.31
2019-03-23T16:34:46.483Z,55.36
2019-03-23T16:37:16.300Z,55.81
2019-03-23T16:39:45.803Z,55.00
2019-03-23T16:42:15.312Z,55.28
2019-03-23T16:44:45.126Z,57.42
2019-03-23T16:47:14.296Z,56.38
2019-03-23T16:49:44.043Z,57.35
2019-03-23T16:52:13.544Z,59.75
2019-03-23T16:54:42.759Z,60.68
2019-03-23T16:57:11.958Z,61.03
2019-03-23T16:59:41.116Z,61.96
2019-03-23T17:02:10.647Z,62.96
2019-03-23T17:04:40.451Z,62.97
2019-03-23T17:07:09.960Z,63.03
2019-03-23T17:09:39.213Z,63.62
2019-03-23T17:12:08.360Z,64.11
2019-03-23T17:14:37.557Z,64.38
2019-03-23T17:17:07.069Z,65.15
2019-03-23T17:19:36.869Z,65.20
2019-03-23T17:22:06.005Z,65.48
2019-03-23T17:24:35.474Z,66.19
2019-03-23T17:27:05.085Z,66.13
2019-03-23T17:29:34.797Z,67.30
2019-03-23T17:32:04.304Z,68.20
2019-03-23T17:34:33.823Z,68.22
2019-03-23T17:37:03.036Z,68.22
2019-03-23T17:39:33.025Z,68.69
2019-03-23T17:42:02.507Z,67.92
2019-03-23T17:44:31.707Z,67.36
2019-03-23T17:47:01.232Z,67.00
2019-03-23T17:49:30.411Z,67.00
2019-03-23T17:52:00.046Z,67.11
2019-03-23T17:54:30.772Z,66.58
2019-03-23T17:56:59.947Z,66.10
2019-03-23T17:59:29.791Z,66.17
2019-03-23T18:01:59.275Z,66.69
2019-03-23T18:04:28.505Z,67.03
2019-03-23T18:06:58.095Z,67.03
2019-03-23T18:09:27.611Z,67.08
2019-03-23T18:11:57.227Z,67.10
2019-03-23T18:14:26.725Z,67.04
2019-03-23T18:16:56.043Z,67.08
2019-03-23T18:19:25.573Z,66.68
2019-03-23T18:21:55.138Z,66.90
2019-03-23T18:24:24.307Z,66.67
2019-03-23T18:26:53.845Z,66.67
2019-03-23T18:29:23.654Z,65.54
2019-03-23T18:31:53.117Z,65.50
2019-03-23T18:34:22.861Z,65.75
2019-03-23T18:36:53.094Z,65.44
2019-03-23T18:39:22.595Z,65.55
2019-03-23T18:41:52.201Z,64.97
2019-03-23T18:44:22.026Z,65.43
2019-03-23T18:46:51.827Z,65.39
2019-03-23T18:49:21.424Z,65.29
2019-03-23T18:51:50.574Z,65.17
2019-03-23T18:54:20.327Z,65.14
2019-03-23T18:56:50.157Z,65.33
2019-03-23T18:59:19.353Z,65.63
2019-03-23T19:01:48.877Z,64.81
2019-03-23T19:04:18.674Z,65.45
2019-03-23T19:06:48.186Z,65.50
2019-03-23T19:09:17.990Z,65.48
2019-03-23T19:11:47.504Z,65.58
2019-03-23T19:14:17.310Z,64.90
2019-03-23T19:16:46.815Z,64.79
2019-03-23T19:19:16.370Z,65.00
2019-03-23T19:21:45.827Z,65.20
2019-03-23T19:24:15.335Z,65.87
2019-03-23T19:26:45.149Z,66.02
2019-03-23T19:29:14.669Z,66.26
2019-03-23T19:31:43.842Z,66.63
2019-03-23T19:34:13.047Z,67.13
2019-03-23T19:36:42.558Z,67.76
2019-03-23T19:39:12.054Z,68.50
2019-03-23T19:41:41.574Z,68.98
2019-03-23T19:44:10.766Z,69.29
2019-03-23T19:46:40.269Z,70.10
2019-03-23T19:49:09.435Z,70.10
2019-03-23T19:51:38.642Z,70.63
2019-03-23T19:54:07.841Z,70.83
2019-03-23T19:56:37.031Z,71.30
2019-03-23T19:59:06.902Z,71.71
2019-03-23T20:01:36.394Z,71.71
2019-03-23T20:04:05.744Z,71.79
2019-03-23T20:06:35.500Z,72.11
2019-03-23T20:09:07.152Z,72.79
2019-03-23T20:11:36.762Z,72.63
2019-03-23T20:14:06.577Z,72.72
2019-03-23T20:16:35.794Z,73.11
2019-03-23T20:19:05.116Z,73.36
2019-03-23T20:21:34.401Z,74.07
2019-03-23T20:24:03.883Z,74.07
2019-03-23T20:26:33.142Z,74.47
2019-03-23T20:29:02.731Z,74.60
2019-03-23T20:31:32.326Z,74.60
2019-03-23T20:34:01.900Z,74.61
2019-03-23T20:36:31.100Z,74.61
2019-03-23T20:39:00.283Z,75.59
2019-03-23T20:41:30.345Z,76.44
2019-03-23T20:44:09.027Z,76.44
2019-03-23T20:46:31.280Z,76.17
2019-03-23T20:49:00.565Z,77.24
2019-03-23T20:51:29.853Z,76.69
2019-03-23T20:53:59.047Z,76.69
2019-03-23T20:56:28.304Z,77.15
2019-03-23T20:58:58.037Z,77.22
2019-03-23T21:01:27.492Z,77.22
2019-03-23T21:03:56.699Z,76.87
2019-03-23T21:06:25.886Z,76.78
2019-03-23T21:08:55.395Z,76.97
2019-03-23T21:11:24.581Z,77.95
2019-03-23T21:13:54.212Z,77.95
2019-03-23T21:16:24.758Z,77.75
2019-03-23T21:18:54.223Z,77.67
2019-03-23T21:21:24.049Z,77.88
2019-03-23T21:23:53.571Z,77.32
2019-03-23T21:26:22.766Z,78.14
2019-03-23T21:28:52.362Z,78.14
2019-03-23T21:31:21.541Z,78.49
2019-03-23T21:33:51.370Z,78.27
2019-03-23T21:36:20.538Z,78.27
2019-03-23T21:38:50.348Z,78.48
2019-03-23T21:41:19.546Z,78.04
2019-03-23T21:43:49.709Z,78.79
2019-03-23T21:46:18.897Z,77.99
2019-03-23T21:48:48.409Z,77.99
2019-03-23T21:51:18.550Z,79.07
2019-03-23T21:53:48.342Z,78.75
2019-03-23T21:56:17.854Z,78.75
2019-03-23T21:58:47.039Z,78.59
2019-03-23T22:01:16.587Z,78.42
2019-03-23T22:03:46.360Z,79.04
2019-03-23T22:06:15.575Z,79.04
2019-03-23T22:08:45.397Z,78.28
2019-03-23T22:11:14.880Z,77.75
2019-03-23T22:13:44.515Z,77.75
2019-03-23T22:16:14.048Z,78.38
2019-03-23T22:18:43.791Z,79.18
2019-03-23T22:21:13.051Z,79.18
2019-03-23T22:23:42.359Z,79.00
2019-03-23T22:26:11.919Z,78.87
2019-03-23T22:28:41.110Z,78.85
2019-03-23T22:31:10.275Z,78.61
2019-03-23T22:33:39.837Z,77.68
2019-03-23T22:36:09.023Z,77.68
2019-03-23T22:38:38.519Z,76.86
2019-03-23T22:41:07.686Z,76.75
2019-03-23T22:43:37.126Z,76.75
2019-03-23T22:46:06.355Z,76.81
2019-03-23T22:48:35.827Z,76.08
2019-03-23T22:51:05.097Z,75.61
2019-03-23T22:53:34.534Z,75.61
2019-03-23T22:56:04.138Z,75.45
2019-03-23T22:58:33.301Z,75.64
2019-03-23T23:01:02.543Z,75.41
2019-03-23T23:03:32.454Z,75.84
2019-03-23T23:06:01.641Z,75.61
2019-03-23T23:08:31.196Z,76.27
2019-03-23T23:11:00.378Z,76.62
2019-03-23T23:13:30.165Z,76.72
2019-03-23T23:15:59.780Z,76.85
2019-03-23T23:18:29.289Z,76.85
2019-03-23T23:20:58.907Z,77.31
2019-03-23T23:23:28.115Z,77.32
2019-03-23T23:25:57.598Z,78.36
2019-03-23T23:28:27.108Z,78.36
2019-03-23T23:30:56.636Z,78.80
2019-03-23T23:33:26.960Z,78.74
2019-03-23T23:35:56.437Z,79.27
2019-03-23T23:38:26.358Z,80.16
2019-03-23T23:40:55.864Z,80.71
2019-03-23T23:43:25.220Z,80.58
2019-03-23T23:45:54.767Z,80.58
2019-03-23T23:48:23.951Z,81.69
2019-03-23T23:50:53.883Z,81.69
2019-03-23T23:53:23.081Z,81.34
2019-03-23T23:55:52.599Z,81.55
2019-03-23T23:58:22.112Z,81.55
